1,427,580개(29635/71379페이지)
LECTURE
번호 제목 글쓴이 조회 날짜
834900 Approaches To Cheat In On the internet V HarveyGlass1525 12 2022.02.20 13:02
834899 9 Best Practices For Human Hair Wigs SallingKold1707 51 2022.02.20 13:01
834898 Trey Poker Computer Card Game: Double Th BrowneHubbard7107 8 2022.02.20 13:01
834897 See For The Most Effective Ideas About P HendrixSehested3618 6 2022.02.20 13:01
834896 Fewer Calories, More Train For Weight Lo AdairWilkinson1016 11 2022.02.20 13:01
834895 If You Don't Minecraft Server Address No DjurhuusSkov5827 14 2022.02.20 13:00
834894 Lịch Thi Đấu Bóng Đá Cup C1 Mùa Giải 202 MelchiorsenHolland4495 16 2022.02.20 13:00
834893 Online Slots Rules--There Are Only Three PridgenCantu5199 22 2022.02.20 13:00
834892 Black Camouflaged Poker Spade T-shirt cr KeithShoemaker0522 11 2022.02.20 13:00
834891 Have Questions About Chiropractic care C McClellanMahmoud5058 13 2022.02.20 12:59
834890 Báo Bóng Đá DiazFoldager3199 11 2022.02.20 12:59
834889 It Is Our Job To Coach Yourself On Web M BrinkValentine2850 6 2022.02.20 12:59
834888 79 Lat Temu Rozpoczęła Się II Wojna świa 사진 BrandstrupAllen3833 8 2022.02.20 12:59
834887 Bet On Sports - How To Place Bets On Spo HelboHarboe4248 12 2022.02.20 12:59
834886 Boost Your Human Hair Wigs With The Foll EngelSchmidt2892 7 2022.02.20 12:59
834885 What you ought to Know When Searching Fo AxelsenChristiansen9282 10 2022.02.20 12:58
834884 Chi Tiết Về 90ptv 90 Phút Television Trự WindButcher6202 17 2022.02.20 12:58
834883 Using Blackjack Strategy Card To Get - T KellerKhan7121 7 2022.02.20 12:58
834882 If You Wish Speedy Recommendations Regar PilegaardHarper4305 11 2022.02.20 12:58
834881 Learn How To Win Online Poker JosephsenPrince1014 16 2022.02.20 12:58